Time;durP1;ratioP1;P1;durP2;ratioP2;P2;SDS_P1;SDS_P2;PMS_P1;PMS_P2;Temp;Humidity;BMP_temperature;BMP_pressure;BME280_temperature;BME280_humidity;BME280_pressure;Samples;Min_cycle;Max_cycle;Signal;HPM_P1;HPM_P2
2023/08/21 00:00:21;;;;;;;11.25;5.18;;;25.40;1.00;;;;;;5056240;28;20741;-75
2023/08/21 00:02:46;;;;;;;8.82;4.30;;;25.50;1.00;;;;;;5049400;28;20730;-76
2023/08/21 00:05:12;;;;;;;8.90;3.90;;;25.60;1.00;;;;;;5055234;28;20392;-75
2023/08/21 00:07:37;;;;;;;9.00;4.55;;;25.60;1.00;;;;;;5069568;28;20391;-76
2023/08/21 00:10:03;;;;;;;9.80;4.10;;;25.60;41.20;;;;;;5069530;28;20395;-75
2023/08/21 00:12:29;;;;;;;10.60;4.50;;;25.50;1.00;;;;;;5069743;28;20412;-75
2023/08/21 00:14:54;;;;;;;8.73;4.60;;;25.40;20.30;;;;;;5069819;28;20896;-75
2023/08/21 00:17:20;;;;;;;9.20;4.30;;;25.40;1.00;;;;;;5069076;28;20441;-75
2023/08/21 00:19:45;;;;;;;9.75;4.32;;;25.20;99.90;;;;;;5058721;28;20396;-75
2023/08/21 00:22:11;;;;;;;9.63;4.80;;;25.20;99.90;;;;;;5068341;28;20422;-75
2023/08/21 00:24:36;;;;;;;9.75;4.45;;;25.20;1.00;;;;;;5068090;28;20950;-75
2023/08/21 00:27:03;;;;;;;10.20;4.50;;;25.10;1.00;;;;;;5051897;28;20405;-75
2023/08/21 00:29:29;;;;;;;10.30;4.55;;;25.10;1.00;;;;;;5066309;28;20489;-76
2023/08/21 00:31:57;;;;;;;9.55;4.53;;;25.10;1.00;;;;;;5066458;28;21275;-75
2023/08/21 00:34:22;;;;;;;9.77;4.60;;;25.20;1.00;;;;;;5049431;28;20497;-75
2023/08/21 00:36:48;;;;;;;7.93;4.13;;;25.30;99.90;;;;;;5048931;28;20916;-75
2023/08/21 00:39:13;;;;;;;8.73;4.18;;;25.30;99.90;;;;;;5051995;28;20405;-75
2023/08/21 00:41:39;;;;;;;9.83;4.50;;;25.30;99.90;;;;;;5068230;28;20457;-75
2023/08/21 00:44:04;;;;;;;9.40;4.20;;;25.20;99.90;;;;;;5068155;28;20414;-76
2023/08/21 00:46:31;;;;;;;10.73;5.20;;;25.10;1.00;;;;;;5067813;28;20388;-73
2023/08/21 00:48:57;;;;;;;12.35;5.15;;;25.10;1.00;;;;;;5068084;28;20482;-73
2023/08/21 00:51:23;;;;;;;11.27;4.88;;;25.20;1.00;;;;;;5068403;28;20489;-73
2023/08/21 00:53:51;;;;;;;9.90;4.53;;;25.10;1.00;;;;;;5068076;28;20376;-73
2023/08/21 00:56:17;;;;;;;9.03;4.60;;;25.00;1.00;;;;;;5068219;28;20399;-73
2023/08/21 00:58:43;;;;;;;10.07;4.60;;;24.90;1.00;;;;;;5066706;28;20430;-73
2023/08/21 01:01:08;;;;;;;9.80;4.25;;;24.80;1.00;;;;;;5068296;28;20384;-73
2023/08/21 01:03:34;;;;;;;9.60;4.82;;;24.70;79.10;;;;;;5066896;28;20475;-73
2023/08/21 01:05:59;;;;;;;14.30;4.57;;;24.60;99.90;;;;;;5068331;28;20396;-73
2023/08/21 01:08:33;;;;;;;9.00;4.33;;;24.70;92.90;;;;;;5069249;28;20395;-73
2023/08/21 01:11:14;;;;;;;9.87;5.17;;;24.70;1.00;;;;;;5068517;28;20480;-73
2023/08/21 01:13:50;;;;;;;9.50;4.60;;;24.60;1.00;;;;;;5068510;28;20755;-73
2023/08/21 01:16:16;;;;;;;10.35;4.80;;;24.60;18.20;;;;;;5068605;28;20894;-73
2023/08/21 01:18:44;;;;;;;10.70;4.47;;;24.50;4.30;;;;;;5062341;28;20393;-73
2023/08/21 01:21:11;;;;;;;9.77;4.90;;;24.60;1.00;;;;;;5065980;28;20412;-73
2023/08/21 01:23:38;;;;;;;10.20;4.60;;;24.50;99.90;;;;;;5068719;28;20431;-73
2023/08/21 01:26:04;;;;;;;10.60;4.22;;;24.50;99.90;;;;;;5062933;28;20396;-73
2023/08/21 01:28:31;;;;;;;10.60;4.60;;;24.50;99.90;;;;;;5068155;28;20400;-73
2023/08/21 01:31:18;;;;;;;9.85;4.65;;;24.40;99.90;;;;;;5067985;28;20901;-73
2023/08/21 01:33:59;;;;;;;10.95;4.80;;;24.40;99.90;;;;;;5054889;28;20405;-73
2023/08/21 01:36:26;;;;;;;9.98;5.00;;;24.30;99.90;;;;;;5057064;28;20735;-73
2023/08/21 01:38:52;;;;;;;11.07;4.60;;;24.30;99.90;;;;;;5064436;28;20441;-73
2023/08/21 01:41:18;;;;;;;9.68;4.97;;;24.20;99.90;;;;;;5068112;28;20407;-73
2023/08/21 01:43:43;;;;;;;9.60;4.70;;;24.10;99.90;;;;;;5078211;28;20511;-76
2023/08/21 01:46:10;;;;;;;12.37;5.00;;;24.00;99.90;;;;;;5072522;28;20396;-73
2023/08/21 01:48:35;;;;;;;11.10;4.80;;;23.90;99.90;;;;;;5067638;28;20415;-73
2023/08/21 01:51:02;;;;;;;10.00;5.00;;;23.90;99.90;;;;;;5061444;28;20539;-73
2023/08/21 01:53:27;;;;;;;10.48;5.10;;;23.90;99.90;;;;;;5056918;28;20406;-73
2023/08/21 01:55:53;;;;;;;11.80;5.27;;;23.90;1.00;;;;;;5060214;28;20965;-73
2023/08/21 01:58:18;;;;;;;10.17;4.67;;;24.00;99.90;;;;;;5067322;28;20406;-73
2023/08/21 02:00:47;;;;;;;10.63;4.77;;;23.90;99.90;;;;;;5069972;28;20442;-73
2023/08/21 02:03:13;;;;;;;11.20;4.75;;;23.90;99.90;;;;;;5071193;28;20391;-73
2023/08/21 02:05:40;;;;;;;9.98;4.88;;;23.90;99.90;;;;;;5055423;28;20764;-73
2023/08/21 02:08:06;;;;;;;10.87;5.83;;;24.00;99.90;;;;;;5065245;28;20413;-73
2023/08/21 02:10:32;;;;;;;9.43;4.68;;;24.00;99.90;;;;;;5061522;28;20949;-72
2023/08/21 02:12:57;;;;;;;11.10;5.57;;;24.00;99.90;;;;;;5071118;28;20487;-74
2023/08/21 02:15:23;;;;;;;10.93;4.65;;;23.90;99.90;;;;;;5071396;28;20414;-73
2023/08/21 02:17:48;;;;;;;10.35;5.13;;;23.90;99.90;;;;;;5068593;28;20412;-73
2023/08/21 02:20:14;;;;;;;12.07;5.23;;;23.90;99.90;;;;;;5071133;28;20454;-73
2023/08/21 02:22:39;;;;;;;10.87;4.87;;;23.80;99.90;;;;;;5070790;28;20406;-74
2023/08/21 02:25:05;;;;;;;12.57;4.60;;;23.70;1.00;;;;;;5071226;28;20388;-73
2023/08/21 02:27:31;;;;;;;12.93;4.83;;;23.70;1.00;;;;;;5070488;28;20403;-73
2023/08/21 02:29:56;;;;;;;10.50;4.63;;;23.60;1.00;;;;;;5072240;28;20482;-73
2023/08/21 02:32:22;;;;;;;10.00;4.27;;;23.70;1.00;;;;;;5071532;28;20515;-73
2023/08/21 02:34:47;;;;;;;11.80;4.63;;;23.70;1.00;;;;;;5070415;28;20512;-75
2023/08/21 02:37:13;;;;;;;9.93;4.93;;;23.70;1.00;;;;;;5070267;28;21098;-73
2023/08/21 02:39:38;;;;;;;11.43;4.93;;;23.70;1.00;;;;;;5069099;28;20899;-74
2023/08/21 02:42:04;;;;;;;11.60;4.97;;;23.70;1.00;;;;;;5064160;28;20988;-74
2023/08/21 02:44:29;;;;;;;10.30;5.20;;;23.70;1.00;;;;;;5071254;28;20418;-74
2023/08/21 02:46:55;;;;;;;10.77;4.73;;;23.60;1.00;;;;;;5072634;28;20404;-74
2023/08/21 02:49:20;;;;;;;11.27;5.47;;;23.50;1.00;;;;;;5071416;28;20388;-74
2023/08/21 02:51:46;;;;;;;10.97;4.60;;;23.40;1.00;;;;;;5069775;28;20493;-74
2023/08/21 02:54:11;;;;;;;10.90;4.80;;;23.40;1.00;;;;;;5071105;28;20388;-74
2023/08/21 02:56:37;;;;;;;8.70;4.27;;;23.40;1.00;;;;;;5071173;28;20926;-73
2023/08/21 02:59:02;;;;;;;10.18;4.90;;;23.30;1.00;;;;;;5068971;28;20391;-74
2023/08/21 03:01:28;;;;;;;9.98;4.63;;;23.20;1.00;;;;;;5070969;28;20499;-74
2023/08/21 03:03:53;;;;;;;11.07;4.60;;;23.20;1.00;;;;;;5071848;28;20389;-74
2023/08/21 03:06:19;;;;;;;10.05;4.60;;;23.20;1.00;;;;;;5070976;28;20395;-74
2023/08/21 03:08:44;;;;;;;9.95;4.78;;;23.20;1.00;;;;;;5071210;28;20438;-75
2023/08/21 03:11:10;;;;;;;10.13;4.68;;;23.20;1.00;;;;;;5071061;28;20492;-74
2023/08/21 03:13:35;;;;;;;11.32;4.95;;;23.30;1.00;;;;;;5070771;28;20384;-75
2023/08/21 03:16:01;;;;;;;10.98;4.93;;;23.30;1.00;;;;;;5071145;28;20430;-74
2023/08/21 03:18:31;;;;;;;11.07;5.50;;;23.20;1.00;;;;;;5071784;28;20770;-74
2023/08/21 03:20:57;;;;;;;9.57;4.60;;;23.20;1.00;;;;;;5071560;28;20403;-73
2023/08/21 03:23:23;;;;;;;11.00;5.23;;;23.20;1.00;;;;;;5070894;28;20450;-73
2023/08/21 03:25:51;;;;;;;10.57;5.05;;;23.20;1.00;;;;;;5059772;28;20405;-73
2023/08/21 03:28:17;;;;;;;11.48;5.32;;;23.20;1.00;;;;;;5055489;28;20485;-73
2023/08/21 03:30:42;;;;;;;11.20;5.20;;;23.20;1.00;;;;;;5053675;28;20413;-73
2023/08/21 03:33:08;;;;;;;12.97;5.93;;;23.10;1.00;;;;;;5068573;28;20399;-75
2023/08/21 03:35:34;;;;;;;10.60;5.40;;;23.00;1.00;;;;;;5057957;28;20960;-76
2023/08/21 03:37:59;;;;;;;9.68;4.97;;;23.00;1.00;;;;;;5070049;28;20507;-73
2023/08/21 03:40:25;;;;;;;12.25;5.30;;;23.00;1.00;;;;;;5069033;28;20499;-73
2023/08/21 03:42:50;;;;;;;12.00;4.95;;;23.00;1.00;;;;;;5064425;28;20500;-75
2023/08/21 03:45:15;;;;;;;11.80;5.00;;;23.00;1.00;;;;;;5055740;28;20832;-76
2023/08/21 03:47:41;;;;;;;14.00;5.20;;;23.00;1.00;;;;;;5060261;28;20403;-74
2023/08/21 03:50:07;;;;;;;11.48;4.78;;;23.00;1.00;;;;;;5070622;28;20399;-74
2023/08/21 03:52:32;;;;;;;9.80;4.80;;;23.00;1.00;;;;;;5069818;28;20431;-74
2023/08/21 03:54:58;;;;;;;10.75;5.45;;;22.90;1.00;;;;;;5070568;28;20495;-74
2023/08/21 03:57:23;;;;;;;10.23;4.68;;;22.90;1.00;;;;;;5070949;28;20392;-74
2023/08/21 03:59:49;;;;;;;13.32;5.30;;;22.80;1.00;;;;;;5089336;28;20538;-74
2023/08/21 04:02:14;;;;;;;9.40;5.05;;;22.90;1.00;;;;;;5081571;28;20506;-74
2023/08/21 04:04:40;;;;;;;12.50;5.63;;;22.90;1.00;;;;;;5085863;28;20388;-75
2023/08/21 04:07:06;;;;;;;9.40;5.37;;;23.00;1.00;;;;;;5077526;28;20429;-75
2023/08/21 04:09:31;;;;;;;13.38;5.45;;;23.00;1.00;;;;;;5092862;28;20761;-75
2023/08/21 04:11:57;;;;;;;14.02;5.45;;;22.90;1.00;;;;;;5093123;28;20494;-75
2023/08/21 04:14:22;;;;;;;10.77;5.20;;;22.90;1.00;;;;;;5072658;28;20394;-75
2023/08/21 04:16:48;;;;;;;11.57;5.70;;;22.90;1.00;;;;;;5070425;28;20404;-75
2023/08/21 04:19:13;;;;;;;11.70;6.05;;;22.80;1.00;;;;;;5070701;28;20384;-75
2023/08/21 04:21:39;;;;;;;13.20;5.60;;;22.80;1.00;;;;;;5069657;28;20380;-75
2023/08/21 04:24:04;;;;;;;11.88;5.57;;;22.70;1.00;;;;;;5071148;28;20384;-75
2023/08/21 04:26:30;;;;;;;9.40;4.70;;;22.70;1.00;;;;;;5069500;28;20467;-75
2023/08/21 04:28:56;;;;;;;13.30;5.57;;;22.70;1.00;;;;;;5070728;28;20419;-75
2023/08/21 04:31:21;;;;;;;12.40;5.77;;;22.80;1.00;;;;;;5060886;28;20753;-75
2023/08/21 04:33:47;;;;;;;9.97;5.03;;;22.70;1.00;;;;;;5057395;28;20436;-75
2023/08/21 04:36:16;;;;;;;14.13;6.10;;;22.70;1.00;;;;;;5051263;28;20392;-75
2023/08/21 04:38:43;;;;;;;11.10;5.35;;;22.70;1.00;;;;;;5053470;28;20423;-75
2023/08/21 04:41:09;;;;;;;9.82;4.65;;;22.70;1.00;;;;;;5069847;28;20390;-75
2023/08/21 04:43:34;;;;;;;12.45;5.60;;;22.70;1.00;;;;;;5069574;28;20396;-75
2023/08/21 04:46:00;;;;;;;11.23;5.50;;;22.70;1.00;;;;;;5070113;28;20396;-75
2023/08/21 04:48:25;;;;;;;9.07;4.80;;;22.70;1.00;;;;;;5070343;28;20384;-75
2023/08/21 04:50:51;;;;;;;11.90;5.53;;;22.60;1.00;;;;;;5069456;28;20414;-75
2023/08/21 04:53:16;;;;;;;10.93;5.30;;;22.70;1.00;;;;;;5069436;28;20882;-75
2023/08/21 04:55:42;;;;;;;12.23;5.40;;;22.70;1.00;;;;;;5065467;28;20411;-75
2023/08/21 04:58:09;;;;;;;10.73;5.38;;;22.70;1.00;;;;;;5068998;28;20474;-75
2023/08/21 05:00:34;;;;;;;13.27;5.75;;;22.80;1.00;;;;;;5068109;28;20398;-75
2023/08/21 05:03:00;;;;;;;13.70;5.40;;;22.90;1.00;;;;;;5063980;28;20735;-75
2023/08/21 05:05:25;;;;;;;11.10;5.10;;;23.10;1.00;;;;;;5060058;28;20797;-75
2023/08/21 05:07:53;;;;;;;11.68;5.22;;;23.20;1.00;;;;;;5063058;28;20500;-76
2023/08/21 05:10:18;;;;;;;13.15;5.38;;;23.20;1.00;;;;;;5063834;28;20418;-75
2023/08/21 05:12:44;;;;;;;12.47;5.70;;;23.20;1.00;;;;;;5056496;28;20413;-75
2023/08/21 05:15:10;;;;;;;11.88;4.93;;;23.30;1.00;;;;;;5056786;28;20857;-75
2023/08/21 05:17:35;;;;;;;10.70;5.63;;;23.40;1.00;;;;;;5060107;28;20411;-75
2023/08/21 05:20:01;;;;;;;10.80;5.60;;;23.50;1.00;;;;;;5063819;28;20406;-73
2023/08/21 05:22:26;;;;;;;12.40;5.00;;;23.60;1.00;;;;;;5058734;28;20393;-73
2023/08/21 05:24:52;;;;;;;11.40;5.38;;;23.80;1.00;;;;;;5059661;28;20535;-73
2023/08/21 05:27:17;;;;;;;10.38;4.60;;;24.00;1.00;;;;;;5058049;28;20395;-73
2023/08/21 05:29:43;;;;;;;11.20;5.22;;;24.20;1.00;;;;;;5054181;28;20459;-73
2023/08/21 05:32:09;;;;;;;9.75;4.72;;;24.30;99.90;;;;;;5059931;28;20833;-73
2023/08/21 05:34:34;;;;;;;14.90;5.30;;;24.50;99.90;;;;;;5068626;28;20414;-73
2023/08/21 05:37:00;;;;;;;11.80;5.27;;;24.60;99.90;;;;;;5065304;28;20396;-75
2023/08/21 05:39:25;;;;;;;9.57;4.70;;;24.70;99.90;;;;;;5072356;28;20385;-75
2023/08/21 05:41:51;;;;;;;11.70;4.90;;;24.80;99.90;;;;;;5069823;28;20399;-75
2023/08/21 05:44:16;;;;;;;11.03;5.30;;;25.10;35.50;;;;;;5069187;28;20991;-75
2023/08/21 05:46:42;;;;;;;9.90;5.07;;;25.20;1.00;;;;;;5067890;28;20397;-75
2023/08/21 05:49:07;;;;;;;11.23;4.60;;;25.30;1.00;;;;;;5057450;28;20385;-77
2023/08/21 05:51:34;;;;;;;13.77;5.00;;;25.60;1.00;;;;;;5055987;28;20470;-78
2023/08/21 05:53:59;;;;;;;9.82;5.20;;;26.60;99.90;;;;;;5068733;28;20481;-76
2023/08/21 05:56:25;;;;;;;10.97;5.40;;;28.10;1.00;;;;;;5063408;28;20515;-75
2023/08/21 05:58:50;;;;;;;10.23;4.90;;;29.60;99.90;;;;;;5075468;28;20399;-76
2023/08/21 06:01:16;;;;;;;10.00;4.63;;;30.90;1.00;;;;;;5071545;28;20404;-73
2023/08/21 06:03:42;;;;;;;12.23;4.40;;;31.80;1.00;;;;;;5061026;28;20391;-73
2023/08/21 06:06:08;;;;;;;10.75;4.78;;;32.70;1.00;;;;;;5067375;28;20431;-73
2023/08/21 06:08:33;;;;;;;11.95;4.60;;;33.00;1.00;;;;;;5074340;28;20426;-73
2023/08/21 06:10:59;;;;;;;9.90;4.53;;;33.50;1.00;;;;;;5072396;28;20481;-73
2023/08/21 06:13:25;;;;;;;10.70;4.90;;;33.40;1.00;;;;;;5068361;28;20405;-71
2023/08/21 06:15:51;;;;;;;9.80;4.53;;;33.60;1.00;;;;;;5062290;28;20409;-70
2023/08/21 06:18:16;;;;;;;9.70;4.80;;;33.60;1.00;;;;;;5066635;28;20410;-71
2023/08/21 06:20:43;;;;;;;11.40;4.20;;;33.70;1.00;;;;;;5073341;28;20408;-71
2023/08/21 06:23:10;;;;;;;9.93;4.53;;;33.60;1.00;;;;;;5073500;28;20406;-70
2023/08/21 06:25:35;;;;;;;11.23;4.67;;;33.60;1.00;;;;;;5068262;28;20773;-72
2023/08/21 06:28:01;;;;;;;11.87;4.60;;;33.60;1.00;;;;;;5068234;28;20402;-71
2023/08/21 06:30:27;;;;;;;10.98;5.28;;;;;;;;;;5057125;28;20413;-72
2023/08/21 06:32:53;;;;;;;10.27;4.47;;;33.80;99.90;;;;;;5074268;28;20442;-71
2023/08/21 06:35:18;;;;;;;9.93;4.72;;;34.30;99.90;;;;;;5071313;28;20757;-71
2023/08/21 06:37:44;;;;;;;10.07;5.00;;;34.70;99.90;;;;;;5071791;28;20855;-72
2023/08/21 06:40:11;;;;;;;9.40;4.30;;;35.40;99.90;;;;;;5065066;28;20771;-71
2023/08/21 06:42:37;;;;;;;9.35;4.13;;;35.90;99.90;;;;;;5067146;28;20455;-71
2023/08/21 06:45:03;;;;;;;9.27;4.00;;;36.00;99.90;;;;;;5069369;28;20400;-72
2023/08/21 06:47:29;;;;;;;9.13;4.50;;;35.80;99.90;;;;;;5072561;28;20434;-71
2023/08/21 06:49:54;;;;;;;9.17;3.80;;;35.40;99.90;;;;;;5063753;28;20430;-71
2023/08/21 06:52:20;;;;;;;9.03;4.20;;;35.30;99.90;;;;;;5057945;28;20440;-71
2023/08/21 06:54:45;;;;;;;11.60;4.40;;;35.50;99.90;;;;;;5068468;28;20395;-71
2023/08/21 06:57:11;;;;;;;8.98;4.78;;;35.20;99.90;;;;;;5058096;28;20749;-71
2023/08/21 06:59:36;;;;;;;12.17;4.90;;;35.60;99.90;;;;;;5069013;28;20438;-72
2023/08/21 07:02:02;;;;;;;8.98;4.28;;;35.80;99.90;;;;;;5065723;28;20523;-72
2023/08/21 07:04:28;;;;;;;8.10;4.25;;;36.30;99.90;;;;;;5067649;28;20399;-72
2023/08/21 07:06:54;;;;;;;8.60;3.97;;;36.50;1.00;;;;;;5070588;28;20392;-74
2023/08/21 07:09:19;;;;;;;13.63;4.27;;;37.00;1.00;;;;;;5070844;28;20383;-71
2023/08/21 07:11:45;;;;;;;10.00;4.30;;;36.90;1.00;;;;;;5069649;28;20498;-72
2023/08/21 07:14:13;;;;;;;8.50;4.07;;;;;;;;;;5070643;28;20475;-72
2023/08/21 07:16:39;;;;;;;7.55;3.70;;;37.30;99.90;;;;;;5070931;28;20441;-72
2023/08/21 07:19:04;;;;;;;9.77;4.50;;;37.80;99.90;;;;;;5070816;28;20420;-72
2023/08/21 07:21:30;;;;;;;9.77;4.63;;;38.10;99.90;;;;;;5070287;28;20391;-72
2023/08/21 07:23:55;;;;;;;13.50;4.45;;;38.30;99.90;;;;;;5071491;28;20730;-72
2023/08/21 07:26:21;;;;;;;10.40;4.80;;;38.30;99.90;;;;;;5070187;28;20866;-72
2023/08/21 07:28:47;;;;;;;10.77;3.70;;;38.10;99.90;;;;;;5070706;28;20400;-72
2023/08/21 07:31:12;;;;;;;10.63;4.10;;;38.30;99.90;;;;;;5070213;28;20440;-72
2023/08/21 07:33:38;;;;;;;12.77;4.10;;;38.30;99.90;;;;;;5070479;28;20376;-72
2023/08/21 07:36:05;;;;;;;10.00;4.45;;;38.40;99.90;;;;;;5070572;28;20387;-72
2023/08/21 07:38:31;;;;;;;8.30;4.00;;;38.70;99.90;;;;;;5070071;28;20922;-72
2023/08/21 07:41:08;;;;;;;9.53;4.47;;;38.60;99.90;;;;;;5069770;28;20427;-72
2023/08/21 07:43:34;;;;;;;7.55;3.90;;;38.70;99.90;;;;;;5070098;28;20392;-72
2023/08/21 07:46:07;;;;;;;11.00;4.60;;;39.20;99.90;;;;;;5070100;28;20467;-72
2023/08/21 07:48:33;;;;;;;8.20;4.00;;;39.90;99.90;;;;;;5069465;28;20490;-72
2023/08/21 07:50:59;;;;;;;9.88;4.70;;;39.90;99.90;;;;;;5069688;28;20882;-72
2023/08/21 07:53:26;;;;;;;9.20;4.67;;;39.50;99.90;;;;;;5070633;28;20459;-72
2023/08/21 07:55:51;;;;;;;10.45;5.00;;;39.50;99.90;;;;;;5069475;28;20388;-72
2023/08/21 07:58:18;;;;;;;8.70;4.70;;;40.40;99.90;;;;;;5068819;28;20455;-72
2023/08/21 08:00:44;;;;;;;10.02;5.05;;;41.20;99.90;;;;;;5069850;28;20392;-72
2023/08/21 08:03:10;;;;;;;9.27;4.83;;;41.00;99.90;;;;;;5069402;28;20391;-72
2023/08/21 08:05:36;;;;;;;10.35;4.60;;;40.40;99.90;;;;;;5068737;28;20498;-72
2023/08/21 08:08:02;;;;;;;9.85;4.20;;;40.30;99.90;;;;;;5069496;28;20514;-72
2023/08/21 08:10:28;;;;;;;8.75;4.50;;;40.00;99.90;;;;;;5069249;28;20395;-72
2023/08/21 08:12:54;;;;;;;9.30;4.73;;;40.30;99.90;;;;;;5069007;28;20419;-72
2023/08/21 08:15:20;;;;;;;10.10;5.05;;;40.70;99.90;;;;;;5069393;28;20882;-72
2023/08/21 08:17:45;;;;;;;9.38;4.80;;;40.40;99.90;;;;;;5068885;28;20399;-72
2023/08/21 08:20:12;;;;;;;7.93;4.20;;;40.80;99.90;;;;;;5068954;28;20395;-72
2023/08/21 08:22:37;;;;;;;10.00;5.10;;;41.20;99.90;;;;;;5069522;28;20391;-71
2023/08/21 08:25:05;;;;;;;8.48;4.35;;;40.70;99.90;;;;;;5069003;28;20398;-72
2023/08/21 08:27:32;;;;;;;9.68;4.30;;;39.80;99.90;;;;;;5069294;28;20980;-72
2023/08/21 08:30:00;;;;;;;9.55;4.72;;;39.50;99.90;;;;;;5075959;28;20384;-72
2023/08/21 08:32:26;;;;;;;8.93;4.30;;;40.10;99.90;;;;;;5080132;28;20427;-73
2023/08/21 08:34:53;;;;;;;9.25;4.45;;;39.90;99.90;;;;;;5069130;28;21023;-73
2023/08/21 08:37:18;;;;;;;8.50;4.47;;;40.20;99.90;;;;;;5069281;28;20526;-73
2023/08/21 08:39:46;;;;;;;11.50;5.03;;;39.90;99.90;;;;;;5068833;28;20910;-73
2023/08/21 08:42:13;;;;;;;8.23;4.30;;;40.70;99.90;;;;;;5068828;28;20471;-73
2023/08/21 08:44:40;;;;;;;9.27;5.10;;;40.90;99.90;;;;;;5068982;28;20483;-73
2023/08/21 08:47:07;;;;;;;9.60;4.50;;;40.90;99.90;;;;;;5068222;28;20789;-73
2023/08/21 08:49:33;;;;;;;9.60;4.72;;;41.40;99.90;;;;;;5068820;28;20384;-73
2023/08/21 08:51:59;;;;;;;9.35;4.85;;;41.40;99.90;;;;;;5068343;28;20412;-73
2023/08/21 08:54:26;;;;;;;8.30;4.93;;;41.60;99.90;;;;;;5069119;28;20415;-73
2023/08/21 08:56:52;;;;;;;9.70;4.78;;;42.20;99.90;;;;;;5067151;28;20395;-73
2023/08/21 08:59:18;;;;;;;8.68;4.63;;;42.40;99.90;;;;;;5068298;28;20778;-73
2023/08/21 09:01:43;;;;;;;8.60;4.63;;;41.60;99.90;;;;;;5067997;28;20719;-73
2023/08/21 09:04:09;;;;;;;10.70;4.78;;;41.30;99.90;;;;;;5068412;28;20380;-73
2023/08/21 09:06:36;;;;;;;10.60;5.35;;;41.80;99.90;;;;;;5068522;28;20871;-71
2023/08/21 09:09:02;;;;;;;10.07;4.75;;;42.10;99.90;;;;;;5068110;28;20388;-71
2023/08/21 09:11:28;;;;;;;10.63;4.90;;;42.40;99.90;;;;;;5068617;28;20495;-71
2023/08/21 09:13:55;;;;;;;9.13;4.47;;;42.30;99.90;;;;;;5068836;28;20538;-71
2023/08/21 09:16:22;;;;;;;9.27;4.90;;;42.20;99.90;;;;;;5067840;28;20388;-71
2023/08/21 09:18:52;;;;;;;8.70;4.90;;;42.50;99.90;;;;;;5068330;28;21040;-72
2023/08/21 09:21:18;;;;;;;10.07;5.35;;;43.10;99.90;;;;;;5068715;28;20449;-73
2023/08/21 09:23:45;;;;;;;10.50;4.70;;;43.50;99.90;;;;;;5067297;28;20478;-73
2023/08/21 09:26:17;;;;;;;9.48;4.68;;;42.50;99.90;;;;;;5068072;28;20391;-73
2023/08/21 09:28:43;;;;;;;8.88;4.35;;;42.40;99.90;;;;;;5068315;28;20419;-73
2023/08/21 09:31:09;;;;;;;9.90;4.78;;;42.50;99.90;;;;;;5067867;28;20454;-73
2023/08/21 09:33:35;;;;;;;9.65;4.93;;;42.30;99.90;;;;;;5068296;28;20403;-73
2023/08/21 09:36:00;;;;;;;9.32;5.18;;;42.50;99.90;;;;;;5069377;28;20379;-73
2023/08/21 09:38:27;;;;;;;8.60;4.80;;;42.40;99.90;;;;;;5070493;28;20419;-73
2023/08/21 09:40:54;;;;;;;8.80;4.50;;;43.20;99.90;;;;;;5069432;28;20394;-73
2023/08/21 09:43:21;;;;;;;11.65;4.63;;;44.10;99.90;;;;;;5068169;28;20386;-73
2023/08/21 09:45:49;;;;;;;10.05;4.60;;;44.20;99.90;;;;;;5068102;28;20496;-73
2023/08/21 09:48:15;;;;;;;9.20;4.78;;;43.80;99.90;;;;;;5068094;28;20427;-73
2023/08/21 09:50:40;;;;;;;8.57;4.23;;;44.90;99.90;;;;;;5068093;28;20395;-73
2023/08/21 09:53:07;;;;;;;8.90;4.60;;;45.60;99.90;;;;;;5068303;28;20391;-74
2023/08/21 09:55:33;;;;;;;8.70;4.90;;;44.70;99.90;;;;;;5067868;28;20763;-73
2023/08/21 09:58:00;;;;;;;9.85;4.82;;;43.50;99.90;;;;;;5051134;28;20430;-73
2023/08/21 10:00:34;;;;;;;8.80;4.80;;;43.80;99.90;;;;;;5048477;28;20393;-73
2023/08/21 10:03:02;;;;;;;11.07;5.20;;;44.40;99.90;;;;;;5048088;28;20404;-73
2023/08/21 10:05:29;;;;;;;8.52;4.70;;;44.60;99.90;;;;;;5047711;28;20396;-73
2023/08/21 10:07:55;;;;;;;7.63;4.00;;;43.80;99.90;;;;;;5048715;28;20390;-73
2023/08/21 10:10:21;;;;;;;9.77;4.80;;;43.70;99.90;;;;;;5048054;28;20409;-73
2023/08/21 10:12:48;;;;;;;10.23;4.90;;;44.20;99.90;;;;;;5047609;28;20425;-73
2023/08/21 10:15:15;;;;;;;9.80;4.50;;;43.20;99.90;;;;;;5047547;28;20393;-73
2023/08/21 10:17:43;;;;;;;11.13;4.73;;;42.30;99.90;;;;;;5048093;28;20873;-73
2023/08/21 10:20:09;;;;;;;8.67;4.10;;;42.50;99.90;;;;;;5048789;28;20385;-73
2023/08/21 10:22:49;;;;;;;9.23;4.40;;;42.80;99.90;;;;;;5051430;28;20406;-73
2023/08/21 10:25:22;;;;;;;7.85;4.07;;;43.30;99.90;;;;;;5051230;28;20733;-73
2023/08/21 10:27:53;;;;;;;8.98;4.45;;;43.30;99.90;;;;;;5051519;28;20396;-73
2023/08/21 10:30:26;;;;;;;9.30;4.22;;;42.80;99.90;;;;;;5051340;28;20473;-73
2023/08/21 10:32:54;;;;;;;10.35;4.45;;;42.20;99.90;;;;;;5051393;28;20512;-73
2023/08/21 10:35:22;;;;;;;9.25;4.40;;;42.00;99.90;;;;;;5052246;28;20409;-73
2023/08/21 10:38:09;;;;;;;9.50;3.92;;;41.70;99.90;;;;;;5050988;28;20496;-73
2023/08/21 10:40:36;;;;;;;9.63;4.18;;;40.90;99.90;;;;;;5051238;28;20393;-73
2023/08/21 10:43:02;;;;;;;9.10;4.50;;;40.50;99.90;;;;;;5050847;28;20431;-73
2023/08/21 10:45:29;;;;;;;9.52;4.50;;;40.10;99.90;;;;;;5051344;28;20409;-72
2023/08/21 10:47:57;;;;;;;10.63;4.53;;;39.80;99.90;;;;;;5051682;28;20426;-72
2023/08/21 10:50:23;;;;;;;8.88;4.63;;;39.20;99.90;;;;;;5051328;28;20397;-73
2023/08/21 10:52:51;;;;;;;10.60;4.50;;;38.70;99.90;;;;;;5051015;28;20425;-73
2023/08/21 10:55:20;;;;;;;10.05;4.20;;;38.20;99.90;;;;;;5050537;28;20393;-73
2023/08/21 10:57:49;;;;;;;9.60;4.57;;;38.20;99.90;;;;;;5050897;28;20760;-73
2023/08/21 11:00:17;;;;;;;9.70;4.35;;;38.20;99.90;;;;;;5055382;28;20392;-72
2023/08/21 11:02:45;;;;;;;9.98;4.20;;;38.10;99.90;;;;;;5057616;28;20400;-72
2023/08/21 11:05:13;;;;;;;12.07;4.57;;;37.90;99.90;;;;;;5052982;28;20420;-72
2023/08/21 11:07:43;;;;;;;9.80;4.65;;;37.80;99.90;;;;;;5050632;28;20388;-73
2023/08/21 11:10:13;;;;;;;9.02;4.00;;;37.70;99.90;;;;;;5050618;28;20389;-72
2023/08/21 11:12:47;;;;;;;9.23;3.90;;;38.00;99.90;;;;;;5050510;28;20823;-72
2023/08/21 11:15:12;;;;;;;9.40;4.38;;;38.40;99.90;;;;;;5050839;28;20848;-72
2023/08/21 11:17:38;;;;;;;8.70;3.97;;;38.40;99.90;;;;;;5050237;28;20443;-73
2023/08/21 11:20:04;;;;;;;7.95;3.85;;;38.40;99.90;;;;;;5051332;28;20498;-72
2023/08/21 11:22:32;;;;;;;11.73;4.72;;;38.00;99.90;;;;;;5050380;28;20389;-72
2023/08/21 11:24:57;;;;;;;11.48;4.50;;;37.50;99.90;;;;;;5050231;28;20481;-72
2023/08/21 11:30:45;;;;;;;8.95;4.30;;;37.50;99.90;;;;;;5064518;28;20881;-72
2023/08/21 11:33:12;;;;;;;9.52;3.90;;;37.10;99.90;;;;;;5070380;28;20387;-72
2023/08/21 11:35:39;;;;;;;13.10;3.95;;;36.40;99.90;;;;;;5069960;28;20396;-72
2023/08/21 11:38:05;;;;;;;12.30;4.28;;;36.40;99.90;;;;;;5070070;28;20396;-72
2023/08/21 11:40:34;;;;;;;9.85;4.25;;;36.50;99.90;;;;;;5069743;28;20399;-72
2023/08/21 11:43:01;;;;;;;9.55;4.65;;;36.90;99.90;;;;;;5070463;28;20395;-72
2023/08/21 11:45:27;;;;;;;11.27;4.60;;;37.00;99.90;;;;;;5069972;28;20399;-72
2023/08/21 11:47:56;;;;;;;8.60;4.18;;;36.50;99.90;;;;;;5070309;28;20739;-72
2023/08/21 11:50:21;;;;;;;10.27;4.68;;;36.80;99.90;;;;;;5069920;28;20384;-72
2023/08/21 11:52:47;;;;;;;8.60;4.60;;;36.80;99.90;;;;;;5069688;28;20450;-73
2023/08/21 11:55:12;;;;;;;9.10;5.03;;;36.90;99.90;;;;;;5069248;28;20391;-72
2023/08/21 11:57:53;;;;;;;8.47;3.70;;;36.60;99.90;;;;;;5069108;28;20368;-72
2023/08/21 12:00:25;;;;;;;9.60;4.00;;;36.70;99.90;;;;;;5069730;28;20858;-73
2023/08/21 12:02:59;;;;;;;9.40;4.40;;;36.90;99.90;;;;;;5070023;28;20427;-72
2023/08/21 12:05:24;;;;;;;10.25;4.10;;;36.90;99.90;;;;;;5070068;28;20396;-72
2023/08/21 12:07:50;;;;;;;9.07;4.28;;;37.10;99.90;;;;;;5069208;28;20410;-72
2023/08/21 12:10:23;;;;;;;10.73;4.03;;;37.20;99.90;;;;;;5069536;28;20748;-72
2023/08/21 12:12:48;;;;;;;10.32;4.32;;;37.10;99.90;;;;;;5069208;28;20415;-72
2023/08/21 12:15:14;;;;;;;10.82;4.50;;;37.10;99.90;;;;;;5069027;28;20468;-72
2023/08/21 12:17:39;;;;;;;11.27;4.37;;;37.10;99.90;;;;;;5069394;28;20399;-73
2023/08/21 12:20:10;;;;;;;9.30;4.50;;;37.10;99.90;;;;;;5069256;28;20388;-73
2023/08/21 12:22:37;;;;;;;8.30;3.90;;;37.10;99.90;;;;;;5069059;28;20419;-72
2023/08/21 12:25:03;;;;;;;10.57;4.55;;;37.10;99.90;;;;;;5069782;28;20890;-72
2023/08/21 12:27:29;;;;;;;11.10;4.90;;;37.10;99.90;;;;;;5069432;28;20398;-73
2023/08/21 12:29:55;;;;;;;12.27;4.95;;;37.20;99.90;;;;;;5069539;28;20766;-72
2023/08/21 12:32:20;;;;;;;10.90;5.20;;;37.30;99.90;;;;;;5069031;28;20446;-73
2023/08/21 12:34:46;;;;;;;10.10;4.63;;;37.40;99.90;;;;;;5069422;28;20388;-72
2023/08/21 12:37:12;;;;;;;11.03;4.60;;;37.10;99.90;;;;;;5068647;28;20472;-72
2023/08/21 12:39:37;;;;;;;9.00;4.20;;;37.10;99.90;;;;;;5068904;28;20436;-72
2023/08/21 12:42:04;;;;;;;10.57;4.90;;;37.30;99.90;;;;;;5068130;28;20423;-72
2023/08/21 12:44:29;;;;;;;11.38;4.53;;;37.00;99.90;;;;;;5068347;28;20470;-72